M I D A S
Marine Information and Data Acquisition System
Tripno 1358 of the Zeeleeuw from 2007-09-27 06:33:04 to 2007-09-27 14:06:36
Back to CruiseResearch ActivitiesStationsMapUnderway DataData graphs

EquipmentUnitsComments
TimeDGPSUTC
LatitudeDGPSDM.mWGS84
LongitudeDGPSDM.mWGS84
SpeedMeteo Stationm/sRelative wind speed
DirectionMeteo StationdegRelative wind direction
TemperatureMeteo Stationdeg CelciusAir temperature
PressureMeteo StationPaAtmospheric pressure
HumidityMeteo Station%Relative humidity
Missing or incorrect values are displayed as -999
Metereological data collected by the RV Zeeleeuw from 2007-09-27 06:35:30 to 2007-09-27 14:17:11
Time Latitude Longitude Speed Direction Temperature Pressure Humidity
2007-09-27 06:36 51°13.62 2°56.027 -999 -999 -999 -999 -999
2007-09-27 06:37 51°13.657 2°55.902 -999 -999 -999 -999 -999
2007-09-27 06:38 51°13.712 2°55.779 -999 -999 -999 -999 -999
2007-09-27 06:39 51°13.755 2°55.725 -999 -999 -999 -999 -999
2007-09-27 06:40 51°13.781 2°55.691 -999 -999 -999 -999 -999
2007-09-27 06:41 51°13.838 2°55.639 -999 -999 -999 -999 -999
2007-09-27 06:42 51°13.903 2°55.604 -999 -999 -999 -999 -999
2007-09-27 06:43 51°13.95 2°55.602 -999 -999 -999 -999 -999
2007-09-27 06:44 51°13.979 2°55.616 -999 -999 -999 -999 -999
2007-09-27 06:45 51°13.991 2°55.627 -999 -999 -999 -999 -999
2007-09-27 06:46 51°13.995 2°55.622 -999 -999 -999 -999 -999
2007-09-27 06:47 51°13.999 2°55.619 -999 -999 -999 -999 -999
2007-09-27 06:48 51°14.002 2°55.617 -999 -999 -999 -999 -999
2007-09-27 06:49 51°14.005 2°55.614 -999 -999 -999 -999 -999
2007-09-27 06:50 51°14.007 2°55.613 -999 -999 -999 -999 -999
2007-09-27 06:51 51°14.007 2°55.616 -999 -999 -999 -999 -999
2007-09-27 06:52 51°14.005 2°55.624 -999 -999 -999 -999 -999
2007-09-27 06:53 51°14.002 2°55.635 -999 -999 -999 -999 -999
2007-09-27 06:54 51°14.009 2°55.62 -999 -999 -999 -999 -999
2007-09-27 06:55 51°14.059 2°55.5 -999 -999 -999 -999 -999
2007-09-27 06:56 51°14.164 2°55.381 -999 -999 -999 -999 -999
2007-09-27 06:57 51°14.285 2°55.218 -999 -999 -999 -999 -999
2007-09-27 06:58 51°14.39 2°54.984 -999 -999 -999 -999 -999
2007-09-27 06:59 51°14.407 2°54.663 -999 -999 -999 -999 -999
2007-09-27 07:00 51°14.334 2°54.336 2.2 28 -999 -999 -999
2007-09-27 07:01 51°14.22 2°54.032 2.5 19 12.8 101540 81
2007-09-27 07:02 51°14.101 2°53.715 1.1 35 13 101550 81
2007-09-27 07:03 51°13.989 2°53.387 1.9 27 13 101550 79
2007-09-27 07:04 51°13.871 2°53.059 1.1 78 13.2 101540 79
2007-09-27 07:05 51°13.754 2°52.728 1.3 21 13.3 101540 80
2007-09-27 07:06 51°13.633 2°52.398 1.4 26 13.3 101540 77
2007-09-27 07:07 51°13.513 2°52.067 2.3 22 13.4 101540 76
2007-09-27 07:08 51°13.392 2°51.735 2.1 23 13.4 101530 75
2007-09-27 07:09 51°13.271 2°51.402 2.9 20 13.5 101540 75
2007-09-27 07:10 51°13.153 2°51.064 1.2 26 13.6 101540 75
2007-09-27 07:11 51°13.033 2°50.728 1.9 14 13.7 101540 76
2007-09-27 07:12 51°12.913 2°50.39 3.9 27 13.6 101540 75
2007-09-27 07:13 51°12.788 2°50.058 2.9 21 13.6 101530 75
2007-09-27 07:14 51°12.661 2°49.727 1.5 26 13.5 101540 75
2007-09-27 07:15 51°12.536 2°49.396 3.1 38 13.6 101550 75
2007-09-27 07:16 51°12.412 2°49.061 2.8 29 13.5 101550 74
2007-09-27 07:17 51°12.293 2°48.724 3.3 29 13.5 101550 74
2007-09-27 07:18 51°12.177 2°48.389 2.9 41 13.6 101550 75
2007-09-27 07:19 51°12.106 2°48.026 5.1 30 13.6 101540 75
2007-09-27 07:20 51°12.037 2°47.657 4.1 25 13.5 101540 74
2007-09-27 07:21 51°11.97 2°47.285 3.3 33 13.6 101540 75
2007-09-27 07:22 51°11.915 2°46.91 4.8 35 13.6 101550 76
2007-09-27 07:23 51°11.865 2°46.533 5 20 13.7 101540 77
2007-09-27 07:24 51°11.812 2°46.159 4.1 26 13.7 101540 77
2007-09-27 07:25 51°11.763 2°45.782 7 24 13.7 101530 77
2007-09-27 07:26 51°11.713 2°45.406 4.3 26 13.7 101540 77
2007-09-27 07:27 51°11.666 2°45.03 4.5 18 13.7 101540 76
2007-09-27 07:28 51°11.617 2°44.656 3 26 13.6 101540 76
2007-09-27 07:29 51°11.581 2°44.282 5.8 22 13.7 101540 77
2007-09-27 07:30 51°11.553 2°43.919 4.4 20 13.7 101550 77
2007-09-27 07:31 51°11.529 2°43.573 3 31 13.7 101530 76
2007-09-27 07:32 51°11.506 2°43.227 4.8 24 13.7 101530 78
2007-09-27 07:33 51°11.479 2°42.88 3.5 29 13.7 101540 76
2007-09-27 07:34 51°11.456 2°42.535 3.7 23 13.7 101540 77
2007-09-27 07:35 51°11.431 2°42.186 4.6 33 13.6 101530 76
2007-09-27 07:36 51°11.398 2°41.835 3.2 19 13.7 101540 78
2007-09-27 07:37 51°11.333 2°41.485 2.2 29 13.8 101550 78
2007-09-27 07:38 51°11.253 2°41.141 2 27 13.8 101540 78
2007-09-27 07:39 51°11.117 2°40.838 1.4 20 13.8 101540 78
2007-09-27 07:40 51°10.968 2°40.543 1.6 32 13.9 101540 78
2007-09-27 07:41 51°10.818 2°40.25 2.3 25 14 101540 78
2007-09-27 07:42 51°10.686 2°39.984 3.4 24 14.1 101550 78
2007-09-27 07:43 51°10.617 2°39.832 4.8 21 14.2 101530 78
2007-09-27 07:44 51°10.566 2°39.735 7.2 22 14.2 101550 75
2007-09-27 07:45 51°10.523 2°39.651 6.1 25 14.1 101540 77
2007-09-27 07:46 51°10.496 2°39.56 6.4 26 14 101550 76
2007-09-27 07:47 51°10.477 2°39.485 7.7 43 14 101540 77
2007-09-27 07:48 51°10.459 2°39.421 8.7 40 13.9 101540 78
2007-09-27 07:49 51°10.441 2°39.366 8.6 35 13.8 101530 78
2007-09-27 07:50 51°10.421 2°39.318 8.2 34 13.8 101540 77
2007-09-27 07:51 51°10.401 2°39.273 9.1 29 13.8 101540 78
2007-09-27 07:52 51°10.378 2°39.231 9.6 30 13.8 101540 78
2007-09-27 07:53 51°10.353 2°39.189 8.2 28 13.7 101540 76
2007-09-27 07:54 51°10.329 2°39.147 9.9 35 13.8 101540 79
2007-09-27 07:55 51°10.306 2°39.103 9.2 31 13.9 101540 80
2007-09-27 07:56 51°10.282 2°39.056 8.5 31 13.8 101550 77
2007-09-27 07:57 51°10.258 2°39.011 8.5 37 13.8 101540 79
2007-09-27 07:58 51°10.235 2°38.967 8.2 36 13.8 101550 77
2007-09-27 07:59 51°10.211 2°38.923 8.9 36 13.8 101540 78
2007-09-27 08:00 51°10.202 2°38.814 8.2 25 13.8 101550 78
2007-09-27 08:01 51°10.223 2°38.701 9.9 9 13.9 101550 79
2007-09-27 08:02 51°10.257 2°38.61 9.3 16 13.8 101530 77
2007-09-27 08:03 51°10.276 2°38.494 8.5 30 13.8 101550 79
2007-09-27 08:04 51°10.288 2°38.373 7.6 25 13.8 101550 79
2007-09-27 08:05 51°10.284 2°38.247 7.8 38 13.9 101540 78
2007-09-27 08:06 51°10.279 2°38.118 6.5 36 13.9 101550 78
2007-09-27 08:07 51°10.268 2°37.991 6.2 40 13.8 101540 78
2007-09-27 08:08 51°10.246 2°37.859 5.5 34 13.9 101550 77
2007-09-27 08:09 51°10.215 2°37.734 4.8 27 13.9 101560 78
2007-09-27 08:10 51°10.169 2°37.616 6 20 13.9 101540 76
2007-09-27 08:11 51°10.144 2°37.495 6.2 35 14 101550 76
2007-09-27 08:12 51°10.142 2°37.382 7.5 22 13.9 101540 76
2007-09-27 08:13 51°10.149 2°37.295 7.5 16 14 101540 78
2007-09-27 08:14 51°10.168 2°37.2 7.1 20 14.1 101540 79
2007-09-27 08:15 51°10.17 2°37.076 7.3 33 14 101540 79
2007-09-27 08:16 51°10.171 2°36.955 9.6 29 14.1 101540 79
2007-09-27 08:17 51°10.163 2°36.839 8.1 37 14 101550 78
2007-09-27 08:18 51°10.138 2°36.719 5 23 13.9 101560 77
2007-09-27 08:19 51°10.09 2°36.607 4.2 25 13.9 101550 76
2007-09-27 08:20 51°10.042 2°36.492 3.9 30 14.2 101550 77
2007-09-27 08:21 51°9.999 2°36.384 5.3 27 14.4 101560 75
2007-09-27 08:22 51°9.96 2°36.276 6.9 25 14.3 101540 75
2007-09-27 08:23 51°9.928 2°36.164 7.6 44 14.3 101540 77
2007-09-27 08:24 51°9.9 2°36.05 6 44 14.2 101540 78
2007-09-27 08:25 51°9.88 2°35.937 7.4 39 14.2 101530 79
2007-09-27 08:26 51°9.858 2°35.817 7 26 14 101540 78
2007-09-27 08:27 51°9.833 2°35.693 6.7 42 13.9 101550 77
2007-09-27 08:28 51°9.808 2°35.568 7.1 39 14 101530 79
2007-09-27 08:29 51°9.784 2°35.445 6.2 45 14 101550 78
2007-09-27 08:30 51°9.764 2°35.327 6.7 36 14 101540 79
2007-09-27 08:31 51°9.757 2°35.22 8.6 30 14 101540 79
2007-09-27 08:32 51°9.757 2°35.125 8.2 26 14 101540 78
2007-09-27 08:33 51°9.764 2°35.045 8.3 19 14.1 101550 79
2007-09-27 08:34 51°9.775 2°34.973 8.7 13 14.2 101550 80
2007-09-27 08:35 51°9.783 2°34.911 9 15 14.2 101530 80
2007-09-27 08:36 51°9.781 2°34.862 8.7 8 14.1 101540 79
2007-09-27 08:37 51°9.768 2°34.816 8.2 11 14 101540 78
2007-09-27 08:38 51°9.749 2°34.777 7.9 15 14 101540 78
2007-09-27 08:39 51°9.725 2°34.74 8.2 25 14 101540 79
2007-09-27 08:40 51°9.702 2°34.704 8.6 25 14.1 101530 80
2007-09-27 08:41 51°9.68 2°34.664 7.1 23 14 101520 77
2007-09-27 08:42 51°9.694 2°34.595 10.2 354 14 101530 78
2007-09-27 08:43 51°9.738 2°34.621 10.7 332 14 101540 78
2007-09-27 08:44 51°9.825 2°34.742 11.2 333 14.1 101510 80
2007-09-27 08:45 51°9.928 2°34.883 14.1 333 14.2 101530 80
2007-09-27 08:46 51°10.032 2°35.023 13.5 337 14.2 101520 79
2007-09-27 08:47 51°10.155 2°35.159 14.4 338 14.1 101520 79
2007-09-27 08:48 51°10.29 2°35.31 13.5 336 14.1 101530 77
2007-09-27 08:49 51°10.433 2°35.469 15.8 334 14.1 101520 77
2007-09-27 08:50 51°10.575 2°35.629 14.7 335 14.1 101530 79
2007-09-27 08:51 51°10.713 2°35.787 14.8 335 14.2 101530 79
2007-09-27 08:52 51°10.852 2°35.946 13.2 332 14.1 101520 77
2007-09-27 08:53 51°10.993 2°36.107 14.7 330 14.2 101510 79
2007-09-27 08:54 51°11.134 2°36.27 13.8 -999 14.2 101510 78
2007-09-27 08:55 51°11.274 2°36.435 15.7 279 14.2 101520 78
2007-09-27 08:56 51°11.417 2°36.596 13.6 -999 14.2 101510 79
2007-09-27 08:57 51°11.563 2°36.743 13.7 281 14.2 101520 79
2007-09-27 08:58 51°11.713 2°36.894 15 -999 14.2 101510 79
2007-09-27 08:59 51°11.855 2°37.039 12.9 280 14.3 101510 80
2007-09-27 09:00 51°11.999 2°37.188 15.7 -999 14.2 101510 78
2007-09-27 09:01 51°12.143 2°37.335 14.6 282 14.3 101530 78
2007-09-27 09:02 51°12.284 2°37.48 13.2 -999 14.3 101510 78
2007-09-27 09:03 51°12.428 2°37.623 13.2 285 14.2 101530 78
2007-09-27 09:04 51°12.575 2°37.757 14.4 -999 14.2 101510 77
2007-09-27 09:05 51°12.725 2°37.896 13.4 280 14.3 101510 79
2007-09-27 09:06 51°12.871 2°38.031 14.9 -999 14.4 101510 79
2007-09-27 09:07 51°13.017 2°38.172 15.3 285 14.4 101510 78
2007-09-27 09:08 51°13.167 2°38.31 15.8 -999 14.4 101530 78
2007-09-27 09:09 51°13.312 2°38.445 14.3 282 14.3 101520 76
2007-09-27 09:10 51°13.465 2°38.589 15 -999 14.3 101520 75
2007-09-27 09:11 51°13.617 2°38.728 16 279 14.3 101520 75
2007-09-27 09:12 51°13.794 2°38.773 14.4 -999 14.4 101520 74
2007-09-27 09:13 51°13.97 2°38.723 14.1 352 14.4 101530 74
2007-09-27 09:14 51°14.097 2°38.518 9 7 14.4 101510 73
2007-09-27 09:15 51°14.103 2°38.178 6.6 21 14.4 101520 73
2007-09-27 09:16 51°14.049 2°37.825 2.6 19 14.4 101540 72
2007-09-27 09:17 51°13.945 2°37.491 4 27 14.4 101540 72
2007-09-27 09:18 51°13.841 2°37.155 5.3 24 14.5 101540 73
2007-09-27 09:19 51°13.737 2°36.819 3.9 22 14.5 101530 74
2007-09-27 09:20 51°13.633 2°36.482 3.7 21 14.5 101540 72
2007-09-27 09:21 51°13.531 2°36.146 3.2 34 14.5 101530 72
2007-09-27 09:22 51°13.428 2°35.808 3.6 37 14.5 101540 71
2007-09-27 09:23 51°13.325 2°35.466 3.4 43 14.6 101550 72
2007-09-27 09:24 51°13.222 2°35.129 5.1 25 14.7 101540 73
2007-09-27 09:25 51°13.12 2°34.796 4.3 36 14.7 101540 72
2007-09-27 09:26 51°13.018 2°34.465 5.2 19 14.7 101540 72
2007-09-27 09:27 51°12.916 2°34.13 4.3 39 14.7 101550 73
2007-09-27 09:28 51°12.814 2°33.802 2.4 31 14.6 101540 72
2007-09-27 09:29 51°12.711 2°33.477 5.3 23 14.7 101530 74
2007-09-27 09:30 51°12.607 2°33.154 3.3 15 14.6 101540 71
2007-09-27 09:31 51°12.503 2°32.829 4.6 35 14.6 101540 71
2007-09-27 09:32 51°12.402 2°32.514 4.2 24 14.6 101540 70
2007-09-27 09:33 51°12.3 2°32.186 3.6 25 14.6 101540 70
2007-09-27 09:34 51°12.198 2°31.871 2.7 34 14.6 101560 70
2007-09-27 09:35 51°12.092 2°31.544 4.3 30 14.7 101550 72
2007-09-27 09:36 51°11.986 2°31.231 3.1 33 14.7 101540 70
2007-09-27 09:37 51°11.878 2°30.908 4.2 28 14.7 101550 71
2007-09-27 09:38 51°11.773 2°30.585 3.6 26 14.8 101550 72
2007-09-27 09:39 51°11.687 2°30.251 4.5 14 14.7 101530 70
2007-09-27 09:40 51°11.605 2°29.914 7.2 18 14.7 101530 70
2007-09-27 09:41 51°11.525 2°29.58 8.7 11 14.7 101540 73
2007-09-27 09:42 51°11.442 2°29.235 10.9 16 14.5 101530 70
2007-09-27 09:43 51°11.379 2°28.894 9.2 12 14.4 101540 73
2007-09-27 09:44 51°11.338 2°28.537 8 3 14.4 101520 75
2007-09-27 09:45 51°11.347 2°28.197 12.1 8 14.3 101500 77
2007-09-27 09:46 51°11.364 2°27.854 9.6 8 14.1 101510 81
2007-09-27 09:47 51°11.46 2°27.57 13.3 356 13.8 101530 83
2007-09-27 09:48 51°11.622 2°27.455 14.6 279 13.7 101480 86
2007-09-27 09:49 51°11.807 2°27.453 16.7 278 13.6 101520 86
2007-09-27 09:50 51°11.965 2°27.414 14.5 347 13.8 101510 86
2007-09-27 09:51 51°12.132 2°27.387 18.3 284 13.8 101510 84
2007-09-27 09:52 51°12.304 2°27.439 17.1 283 13.8 101510 85
2007-09-27 09:53 51°12.467 2°27.551 17.1 284 13.5 101490 85
2007-09-27 09:54 51°12.636 2°27.657 19.1 283 13.7 101490 86
2007-09-27 09:55 51°12.804 2°27.776 18 281 13.6 101530 85
2007-09-27 09:56 51°12.964 2°27.92 20.4 283 13.6 101490 84
2007-09-27 09:57 51°13.133 2°28.061 20.7 334 13.5 101500 84
2007-09-27 09:58 51°13.297 2°28.194 17.4 282 13.4 101530 85
2007-09-27 09:59 51°13.46 2°28.337 17 282 13.1 101530 85
2007-09-27 10:00 51°13.604 2°28.501 16.2 285 13 101530 88
2007-09-27 10:01 51°13.755 2°28.667 14.4 328 12.8 101530 89
2007-09-27 10:02 51°13.903 2°28.83 12.6 283 12.2 101520 90
2007-09-27 10:03 51°14.054 2°29.005 9.6 280 11.5 101520 91
2007-09-27 10:04 51°14.204 2°29.189 13.4 329 11.4 101510 95
2007-09-27 10:05 51°14.352 2°29.37 14.6 283 11.5 101520 97
2007-09-27 10:06 51°14.493 2°29.553 14.9 279 11.9 101500 98
2007-09-27 10:07 51°14.641 2°29.74 14.6 278 12.1 101510 99
2007-09-27 10:08 51°14.783 2°29.92 15.1 281 12.1 101520 99
2007-09-27 10:09 51°14.932 2°30.103 17.2 281 12.1 101510 98
2007-09-27 10:10 51°15.082 2°30.28 15.8 283 12.4 101530 98
2007-09-27 10:11 51°15.232 2°30.465 16.4 -999 12.9 101510 96
2007-09-27 10:12 51°15.378 2°30.647 18.8 338 13.2 101500 91
2007-09-27 10:13 51°15.52 2°30.834 17.8 337 13.4 101510 88
2007-09-27 10:14 51°15.661 2°31.031 14.3 -999 13.2 101530 88
2007-09-27 10:15 51°15.782 2°31.263 16.4 282 13 101520 92
2007-09-27 10:16 51°15.844 2°31.556 17.9 -999 12.7 101470 94
2007-09-27 10:17 51°15.903 2°31.856 17.6 282 12.7 101510 94
2007-09-27 10:18 51°15.916 2°32.171 15.6 -999 12.8 101510 93
2007-09-27 10:19 51°15.917 2°32.49 14 281 13.1 101500 93
2007-09-27 10:20 51°15.911 2°32.81 19 -999 13.4 101520 88
2007-09-27 10:21 51°15.887 2°33.126 14.6 280 13.6 101480 83
2007-09-27 10:22 51°15.864 2°33.451 16.9 -999 13.9 101500 80
2007-09-27 10:23 51°15.83 2°33.773 17.6 281 14.1 101520 77
2007-09-27 10:24 51°15.795 2°34.084 17.2 -999 14.2 101510 74
2007-09-27 10:25 51°15.751 2°34.392 13.4 280 14.4 101510 74
2007-09-27 10:26 51°15.706 2°34.691 14.4 282 14.4 101500 72
2007-09-27 10:27 51°15.668 2°34.986 14.1 -999 14.5 101500 72
2007-09-27 10:28 51°15.629 2°35.287 16.4 -999 14.5 101510 71
2007-09-27 10:29 51°15.594 2°35.582 14.8 281 14.6 101490 71
2007-09-27 10:30 51°15.56 2°35.889 12.9 -999 14.6 101490 70
2007-09-27 10:31 51°15.527 2°36.197 16.1 278 14.6 101480 70
2007-09-27 10:32 51°15.492 2°36.508 15.4 281 14.7 101460 71
2007-09-27 10:33 51°15.463 2°36.823 17.3 21 14.7 101480 71
2007-09-27 10:34 51°15.433 2°37.145 14.1 283 14.7 101450 70
2007-09-27 10:35 51°15.4 2°37.47 17.8 279 14.7 101500 71
2007-09-27 10:36 51°15.369 2°37.794 15.9 283 14.8 101490 71
2007-09-27 10:37 51°15.336 2°38.119 15.1 282 14.7 101500 70
2007-09-27 10:38 51°15.343 2°38.437 15.8 280 14.7 101460 70
2007-09-27 10:39 51°15.379 2°38.747 16.5 -999 14.7 101500 71
2007-09-27 10:40 51°15.458 2°39.023 15.4 -999 14.7 101480 70
2007-09-27 10:41 51°15.547 2°39.296 16.2 281 14.7 101490 72
2007-09-27 10:42 51°15.632 2°39.564 16 -999 14.6 101500 70
2007-09-27 10:43 51°15.725 2°39.836 18.2 284 14.6 101480 70
2007-09-27 10:44 51°15.838 2°40.076 16.9 280 14.6 101450 70
2007-09-27 10:45 51°15.997 2°40.231 15.9 279 14.6 101470 71
2007-09-27 10:46 51°16.16 2°40.382 17.4 285 14.6 101470 71
2007-09-27 10:47 51°16.319 2°40.526 17.9 -999 14.6 101460 70
2007-09-27 10:48 51°16.484 2°40.673 17.4 282 14.6 101460 71
2007-09-27 10:49 51°16.656 2°40.816 15.6 282 14.6 101470 69
2007-09-27 10:50 51°16.831 2°40.96 15.7 280 14.6 101480 70
2007-09-27 10:51 51°17.003 2°41.105 17.4 280 14.6 101460 68
2007-09-27 10:52 51°17.181 2°41.226 14.3 281 14.6 101480 69
2007-09-27 10:53 51°17.359 2°41.346 16.7 283 14.7 101460 72
2007-09-27 10:54 51°17.546 2°41.467 17.9 339 14.6 101460 71
2007-09-27 10:55 51°17.727 2°41.566 14.1 280 14.6 101460 69
2007-09-27 10:56 51°17.913 2°41.542 15.1 351 14.5 101450 70
2007-09-27 10:57 51°18.108 2°41.455 12.4 351 14.6 101450 72
2007-09-27 10:58 51°18.278 2°41.382 14.7 347 14.6 101450 73
2007-09-27 10:59 51°18.46 2°41.308 15.3 352 14.5 101460 70
2007-09-27 11:00 51°18.614 2°41.155 14.2 360 14.6 101460 71
2007-09-27 11:01 51°18.759 2°40.96 14.6 2 14.5 101460 71
2007-09-27 11:02 51°18.9 2°40.763 12.2 4 14.6 101450 71
2007-09-27 11:03 51°19.046 2°40.568 12.7 2 14.6 101470 69
2007-09-27 11:04 51°19.185 2°40.381 10.9 2 14.6 101470 70
2007-09-27 11:05 51°19.328 2°40.19 12.2 2 14.6 101460 71
2007-09-27 11:06 51°19.471 2°39.981 13.6 358 14.7 101460 72
2007-09-27 11:07 51°19.607 2°39.773 11.4 5 14.6 101490 68
2007-09-27 11:08 51°19.746 2°39.566 11.1 4 14.7 101470 68
2007-09-27 11:09 51°19.89 2°39.363 12.5 6 14.6 101460 66
2007-09-27 11:10 51°20.033 2°39.159 12.1 5 14.7 101450 67
2007-09-27 11:11 51°20.172 2°38.958 12.6 2 14.7 101470 68
2007-09-27 11:12 51°20.308 2°38.761 9.4 7 14.8 101450 69
2007-09-27 11:13 51°20.449 2°38.559 11.6 2 14.7 101450 68
2007-09-27 11:14 51°20.588 2°38.361 13.4 358 14.7 101460 68
2007-09-27 11:15 51°20.725 2°38.162 11.4 4 14.7 101430 70
2007-09-27 11:16 51°20.863 2°37.969 9.5 360 14.7 101450 69
2007-09-27 11:17 51°21.007 2°37.77 11.1 6 14.7 101440 67
2007-09-27 11:18 51°21.168 2°37.601 15.3 352 14.8 101440 70
2007-09-27 11:19 51°21.353 2°37.553 15.4 346 14.8 101440 69
2007-09-27 11:20 51°21.549 2°37.532 16.1 282 14.8 101450 70
2007-09-27 11:21 51°21.738 2°37.518 15.4 350 14.8 101440 70
2007-09-27 11:22 51°21.93 2°37.493 16.5 349 14.7 101450 68
2007-09-27 11:23 51°22.119 2°37.503 17 283 14.8 101450 69
2007-09-27 11:24 51°22.31 2°37.51 18.3 352 14.8 101440 70
2007-09-27 11:25 51°22.503 2°37.517 16 350 14.7 101430 69
2007-09-27 11:26 51°22.702 2°37.517 14 350 14.7 101450 69
2007-09-27 11:27 51°22.896 2°37.512 17.2 283 14.9 101440 72
2007-09-27 11:28 51°23.091 2°37.511 19.5 345 14.7 101450 68
2007-09-27 11:29 51°23.273 2°37.607 17.2 281 14.7 101460 65
2007-09-27 11:30 51°23.451 2°37.76 14.7 283 14.8 101470 67
2007-09-27 11:31 51°23.631 2°37.905 17.3 337 14.8 101450 68
2007-09-27 11:32 51°23.809 2°38.05 17.1 336 14.9 101450 71
2007-09-27 11:33 51°23.945 2°38.289 17.1 325 14.9 101480 71
2007-09-27 11:34 51°24.063 2°38.558 17.3 279 14.9 101470 69
2007-09-27 11:35 51°24.184 2°38.82 16.7 329 14.9 101440 68
2007-09-27 11:36 51°24.31 2°39.089 16.8 279 14.9 101460 68
2007-09-27 11:37 51°24.419 2°39.365 17.1 325 14.9 101460 68
2007-09-27 11:38 51°24.53 2°39.65 17.9 320 15 101440 69
2007-09-27 11:39 51°24.639 2°39.939 16.5 -999 15 101470 71
2007-09-27 11:40 51°24.744 2°40.22 19.1 322 15 101480 70
2007-09-27 11:41 51°24.854 2°40.509 15.6 281 14.9 101440 67
2007-09-27 11:42 51°24.967 2°40.792 17.5 326 14.9 101460 67
2007-09-27 11:43 51°25.078 2°41.081 19.3 281 15 101450 70
2007-09-27 11:44 51°25.19 2°41.367 17.3 328 15 101450 69
2007-09-27 11:45 51°25.29 2°41.666 17.8 320 14.9 101450 68
2007-09-27 11:46 51°25.376 2°41.98 18.5 324 15 101440 70
2007-09-27 11:47 51°25.454 2°42.298 16.5 281 14.9 101440 69
2007-09-27 11:48 51°25.527 2°42.621 15.6 282 15 101440 69
2007-09-27 11:49 51°25.601 2°42.949 15.7 321 14.9 101440 68
2007-09-27 11:50 51°25.672 2°43.278 18.1 318 14.9 101430 69
2007-09-27 11:51 51°25.745 2°43.609 18.4 317 15 101460 70
2007-09-27 11:52 51°25.82 2°43.939 19.2 282 15 101440 70
2007-09-27 11:53 51°25.895 2°44.271 19.5 281 15 101440 69
2007-09-27 11:54 51°25.969 2°44.6 17.6 322 14.9 101440 67
2007-09-27 11:55 51°26.039 2°44.93 17.9 318 15 101440 68
2007-09-27 11:56 51°26.116 2°45.255 18.8 319 15 101440 68
2007-09-27 11:57 51°26.193 2°45.584 16 280 15.1 101440 69
2007-09-27 11:58 51°26.271 2°45.911 17.1 319 15 101410 68
2007-09-27 11:59 51°26.351 2°46.237 16.3 320 15.1 101430 67
2007-09-27 12:00 51°26.432 2°46.564 17.3 318 15.1 101430 67
2007-09-27 12:01 51°26.511 2°46.892 16.7 316 15.2 101430 70
2007-09-27 12:02 51°26.588 2°47.224 15.3 321 15.2 101430 70
2007-09-27 12:03 51°26.668 2°47.553 19 322 15.2 101440 68
2007-09-27 12:04 51°26.746 2°47.882 16.5 281 15.2 101430 67
2007-09-27 12:05 51°26.821 2°48.211 15.7 315 15.2 101420 69
2007-09-27 12:06 51°26.896 2°48.547 16.8 319 15.2 101430 69
2007-09-27 12:07 51°26.969 2°48.872 15.9 317 15.2 101420 68
2007-09-27 12:08 51°27.042 2°49.201 20.1 319 15.1 101440 68
2007-09-27 12:09 51°27.115 2°49.535 16.1 319 15.2 101450 70
2007-09-27 12:10 51°27.188 2°49.867 15.7 322 15.1 101420 67
2007-09-27 12:11 51°27.254 2°50.188 16.6 321 15.2 101430 67
2007-09-27 12:12 51°27.267 2°50.536 14.7 25 15.1 101430 66
2007-09-27 12:13 51°27.267 2°50.881 17 282 15.1 101430 67
2007-09-27 12:14 51°27.204 2°51.197 16.4 26 15.1 101420 67
2007-09-27 12:15 51°27.065 2°51.438 11.9 259 15.1 101420 68
2007-09-27 12:16 51°26.883 2°51.541 8.3 261 15.2 101410 69
2007-09-27 12:17 51°26.689 2°51.582 8.2 268 15.2 101440 68
2007-09-27 12:18 51°26.496 2°51.637 6.1 -999 15.2 101440 68
2007-09-27 12:19 51°26.306 2°51.706 9.1 257 15.1 101430 67
2007-09-27 12:20 51°26.118 2°51.779 12.2 -999 15.2 101430 69
2007-09-27 12:21 51°25.93 2°51.847 5.7 262 15.2 101440 68
2007-09-27 12:22 51°25.74 2°51.874 4.9 265 15.2 101420 68
2007-09-27 12:23 51°25.553 2°51.863 6.9 267 15.1 101440 67
2007-09-27 12:24 51°25.367 2°51.808 7.5 28 15.1 101440 67
2007-09-27 12:25 51°25.195 2°51.706 6 23 15.1 101450 67
2007-09-27 12:26 51°25.028 2°51.596 7.2 20 15.1 101440 68
2007-09-27 12:27 51°24.855 2°51.489 6.3 82 15 101440 67
2007-09-27 12:28 51°24.684 2°51.381 6.7 28 14.9 101430 66
2007-09-27 12:29 51°24.514 2°51.273 5.6 27 15 101430 68
2007-09-27 12:30 51°24.338 2°51.173 8.8 26 15 101440 69
2007-09-27 12:31 51°24.167 2°51.079 8.3 76 15 101440 67
2007-09-27 12:32 51°24.002 2°50.962 5.1 29 14.9 101430 65
2007-09-27 12:33 51°23.835 2°50.844 4.1 28 15.1 101430 64
2007-09-27 12:34 51°23.668 2°50.721 6.5 81 15.3 101440 66
2007-09-27 12:35 51°23.497 2°50.594 3.7 20 15.3 101430 65
2007-09-27 12:36 51°23.331 2°50.469 3.2 25 15.4 101430 67
2007-09-27 12:37 51°23.162 2°50.346 4.3 21 15.3 101430 66
2007-09-27 12:38 51°22.994 2°50.255 7 20 15.4 101430 67
2007-09-27 12:39 51°22.81 2°50.258 8.5 270 15.3 101430 66
2007-09-27 12:40 51°22.63 2°50.207 3.8 26 15.3 101430 68
2007-09-27 12:41 51°22.454 2°50.103 4.6 21 15.2 101430 68
2007-09-27 12:42 51°22.294 2°49.964 3.2 21 15.3 101440 71
2007-09-27 12:43 51°22.154 2°49.796 3 76 15.6 101420 70
2007-09-27 12:44 51°22.011 2°49.624 3.7 27 15.8 101440 65
2007-09-27 12:45 51°21.869 2°49.454 4.1 77 15.9 101430 67
2007-09-27 12:46 51°21.726 2°49.278 4.4 21 16 101440 66
2007-09-27 12:47 51°21.584 2°49.103 3.9 82 16 101440 66
2007-09-27 12:48 51°21.445 2°48.923 5.4 29 15.7 101440 63
2007-09-27 12:49 51°21.3 2°48.75 6.5 23 15.9 101430 64
2007-09-27 12:50 51°21.156 2°48.574 5.8 28 15.8 101430 63
2007-09-27 12:51 51°21.011 2°48.401 5.3 27 15.7 101430 64
2007-09-27 12:52 51°20.869 2°48.222 3.4 81 15.7 101420 63
2007-09-27 12:53 51°20.726 2°48.043 5.5 22 15.6 101420 63
2007-09-27 12:54 51°20.583 2°47.862 4.7 75 15.5 101430 64
2007-09-27 12:55 51°20.441 2°47.679 4.8 74 15.8 101420 67
2007-09-27 12:56 51°20.301 2°47.501 3.4 83 16 101420 65
2007-09-27 12:57 51°20.151 2°47.33 2.9 75 16.2 101420 63
2007-09-27 12:58 51°19.998 2°47.173 3.6 76 16.3 101420 64
2007-09-27 12:59 51°19.842 2°47.027 3.7 75 16.1 101420 63
2007-09-27 13:00 51°19.684 2°46.886 5.7 76 15.8 101410 64
2007-09-27 13:01 51°19.526 2°46.743 5 81 15.5 101410 64
2007-09-27 13:02 51°19.374 2°46.593 5.7 74 15.4 101410 67
2007-09-27 13:03 51°19.22 2°46.447 2.9 81 15.5 101420 69
2007-09-27 13:04 51°19.065 2°46.301 4.2 76 15.5 101410 68
2007-09-27 13:05 51°18.908 2°46.146 3.3 -999 15.7 101400 64
2007-09-27 13:06 51°18.757 2°45.997 4.6 -999 15.8 101410 65
2007-09-27 13:07 51°18.601 2°45.844 4.5 -999 15.6 101400 64
2007-09-27 13:08 51°18.449 2°45.699 2.6 -999 15.5 101410 66
2007-09-27 13:09 51°18.291 2°45.546 4.1 82 15.8 101410 67
2007-09-27 13:10 51°18.136 2°45.397 3.5 77 15.9 101410 65
2007-09-27 13:11 51°17.976 2°45.249 3.7 81 16 101400 66
2007-09-27 13:12 51°17.821 2°45.102 3.4 78 16 101410 65
2007-09-27 13:13 51°17.666 2°44.949 3.7 82 16.4 101410 64
2007-09-27 13:14 51°17.511 2°44.796 5.1 81 16.7 101400 63
2007-09-27 13:15 51°17.354 2°44.646 3.7 76 16.5 101400 62
2007-09-27 13:16 51°17.196 2°44.499 7.6 82 16.2 101400 65
2007-09-27 13:17 51°17.03 2°44.372 4.4 81 15.8 101410 64
2007-09-27 13:18 51°16.864 2°44.245 4.6 77 15.5 101410 65
2007-09-27 13:19 51°16.7 2°44.116 3.1 76 15.5 101390 67
2007-09-27 13:20 51°16.536 2°43.985 4.8 82 15.7 101410 69
2007-09-27 13:21 51°16.372 2°43.858 3.4 83 15.6 101400 67
2007-09-27 13:22 51°16.206 2°43.728 4.6 76 15.4 101400 68
2007-09-27 13:23 51°16.043 2°43.592 5.5 75 15.4 101390 69
2007-09-27 13:24 51°15.875 2°43.468 5.8 80 15.5 101400 68
2007-09-27 13:25 51°15.701 2°43.373 5.4 81 15.4 101390 68
2007-09-27 13:26 51°15.525 2°43.279 3.4 83 15.4 101390 70
2007-09-27 13:27 51°15.347 2°43.191 3.9 78 15.5 101400 69
2007-09-27 13:28 51°15.17 2°43.097 3.7 76 15.5 101400 68
2007-09-27 13:29 51°14.982 2°43.082 7.4 285 15.5 101390 67
2007-09-27 13:30 51°14.81 2°43.249 12.7 281 15.5 101380 69
2007-09-27 13:31 51°14.684 2°43.517 12.8 -999 15.4 101340 68
2007-09-27 13:32 51°14.64 2°43.854 17.7 282 15.4 101320 68
2007-09-27 13:33 51°14.681 2°44.193 17.7 283 15.3 101320 67
2007-09-27 13:34 51°14.753 2°44.522 17.2 279 15.3 101310 68
2007-09-27 13:35 51°14.802 2°44.867 16.1 284 15.2 101320 68
2007-09-27 13:36 51°14.844 2°45.214 16.6 -999 15.2 101300 70
2007-09-27 13:37 51°14.874 2°45.561 17.5 281 15.1 101310 68
2007-09-27 13:38 51°14.903 2°45.902 15.1 280 15 101290 67
2007-09-27 13:39 51°14.931 2°46.242 17.5 279 15.1 101320 70
2007-09-27 13:40 51°14.958 2°46.581 17.1 282 15.1 101320 72
2007-09-27 13:41 51°14.981 2°46.92 14.7 285 15 101300 69
2007-09-27 13:42 51°15.006 2°47.258 17.2 280 15 101300 70
2007-09-27 13:43 51°15.032 2°47.602 18.4 281 15 101300 70
2007-09-27 13:44 51°15.057 2°47.949 17.9 280 15 101290 68
2007-09-27 13:45 51°15.024 2°48.288 14.7 279 15 101310 69
2007-09-27 13:46 51°14.993 2°48.623 14.7 280 15 101310 69
2007-09-27 13:47 51°14.964 2°48.956 16.6 281 15.1 101310 70
2007-09-27 13:48 51°14.931 2°49.292 13.5 285 15 101290 69
2007-09-27 13:49 51°14.905 2°49.633 15.2 281 15.1 101300 71
2007-09-27 13:50 51°14.878 2°49.977 16.5 281 15 101300 71
2007-09-27 13:51 51°14.849 2°50.315 13.6 282 15 101300 68
2007-09-27 13:52 51°14.824 2°50.658 14.8 284 15.1 101290 70
2007-09-27 13:53 51°14.799 2°50.988 19 280 15 101300 69
2007-09-27 13:54 51°14.774 2°51.317 15 281 15 101290 68
2007-09-27 13:55 51°14.748 2°51.655 13.6 281 15 101290 68
2007-09-27 13:56 51°14.716 2°51.992 17.1 280 15 101290 68
2007-09-27 13:57 51°14.686 2°52.325 18.3 283 15 101300 69
2007-09-27 13:58 51°14.661 2°52.661 15.7 283 15 101290 70
2007-09-27 13:59 51°14.634 2°52.996 16.5 280 15.1 101280 70
2007-09-27 14:00 51°14.61 2°53.336 18.8 281 15.1 101260 70
2007-09-27 14:01 51°14.568 2°53.668 14.2 282 15.1 101300 71
2007-09-27 14:02 51°14.534 2°53.974 14.4 281 15 101280 69
2007-09-27 14:03 51°14.489 2°54.283 16.5 284 15.1 101280 69
2007-09-27 14:04 51°14.439 2°54.608 15.3 283 15.1 101290 69
2007-09-27 14:05 51°14.378 2°54.939 14.5 279 15.1 101290 69
2007-09-27 14:06 51°14.271 2°55.229 11.3 283 15.1 101290 70
2007-09-27 14:07 51°14.15 2°55.389 6.3 278 15.1 101330 69
2007-09-27 14:08 51°14.049 2°55.467 7.4 289 15 101350 68
2007-09-27 14:09 51°13.952 2°55.538 10 80 15 101340 67
2007-09-27 14:10 51°13.855 2°55.608 6.1 277 15 101350 67
2007-09-27 14:11 51°13.77 2°55.681 4.4 83 15.1 101350 66
2007-09-27 14:12 51°13.704 2°55.78 4.6 285 15.1 101340 65
2007-09-27 14:13 51°13.656 2°55.891 5.7 -999 15.2 101340 66
2007-09-27 14:14 51°13.619 2°55.991 10.5 -999 15.3 101350 64
2007-09-27 14:15 51°13.606 2°56.071 9.1 278 15.3 101350 64
2007-09-27 14:16 51°13.601 2°56.096 11.3 -999 15.4 101350 64